Ouray, Colorado
Current Conditions -  °F | °C
As of 8:55 AM on Saturday 25 Oct 2014 (Local Time) from KTEX Reporting Station
Clear Clear  
Wind Chill:   Ceiling: Unl
Heat Index:   Visibility: 10mi
Dew Point: -9°   Wind: 3mph
Humidity: 30%   Direction: 80°E
Pressure: 30.51"   Gusts: NA
Location:  38.02°N, 107.67°W
Report Text: KTEX 251455Z AUTO 08003KT 10SM CLR 07/M09 A3051 RMK AO2 T00701094
Loading
Personal Weather Stations






























Interactive Weather Map
Tropical Storm Tracking
New forecast layout! Learn more

10-Day Weather Forecast

Advertisements
Track Severe Weather on mobile